»·PEaware :: N333ZS KSBA-KRNM

N333ZS :: KSBA-KRNM

FLIGHT INFORMATION

Flight Status: Arrived
Operator: Privately registered:
United States
More flights under this callsign
Pilot: Judd H. (29974)
Aircraft: CESSNA 182 SKYLANE
(C182)
More flights by this aircraft type
Origin: KSBA Santa Barbara Mun
United States
Destination: KRNM Ramona
United States
More flights between these airports :: More routes between these airports
Route: FIM TANNR
File this flight plan on PilotEdge
Remarks:
Altitude:
(Current/Filed)
5,500ft
Speed:
(Current/Filed)
120kts
Departed: 08-Sep-20 05:17 PM
Arrived: 08-Sep-20 06:41 PM
Distance/Time
Traveled:
168nm/1:24
Distance/Time
To Go:
Arrived

Flight Plot

Page will automatically refresh every two minutes.

Flight plan parsing failed; only flown route is shown


Map Options




Map Legend


Flown Route
Filed Route
Departure Airport
Arrival Airport
Navaid (VOR, NDB)
Fix

Horizontal Profiles

Position Reports

Time Latitude Longitude Heading Altitude Ground
Speed
08-Sep-20 17:01 34.423508 -119.835828 164 13ft 0kts
08-Sep-20 17:02 34.423508 -119.835828 164 13ft 0kts
08-Sep-20 17:03 34.423507 -119.835827 164 13ft 0kts
08-Sep-20 17:04 34.423505 -119.835827 164 13ft 0kts
08-Sep-20 17:05 34.423504 -119.835826 164 13ft 0kts
08-Sep-20 17:06 34.423503 -119.835826 164 13ft 0kts
08-Sep-20 17:07 34.423502 -119.835825 164 13ft 0kts
08-Sep-20 17:08 34.423500 -119.835825 164 13ft 0kts
08-Sep-20 17:09 34.423499 -119.835825 164 13ft 0kts
08-Sep-20 17:10 34.423498 -119.835824 164 13ft 0kts
08-Sep-20 17:11 34.423497 -119.835824 164 13ft 0kts
08-Sep-20 17:12 34.423496 -119.835824 164 13ft 0kts
08-Sep-20 17:13 34.424170 -119.837487 346 13ft 22kts
08-Sep-20 17:14 34.426794 -119.834695 58 13ft 14kts
08-Sep-20 17:15 34.427165 -119.834476 357 13ft 3kts
08-Sep-20 17:16 34.427851 -119.837174 268 13ft 47kts
08-Sep-20 17:17 34.427215 -119.868984 265 545ft 114kts
08-Sep-20 17:18 34.395158 -119.865934 163 931ft 148kts
08-Sep-20 17:19 34.359128 -119.843694 109 1274ft 150kts
08-Sep-20 17:20 34.357131 -119.792582 88 1525ft 153kts
08-Sep-20 17:21 34.357460 -119.741737 85 1490ft 146kts
08-Sep-20 17:22 34.360766 -119.693075 88 1490ft 144kts
08-Sep-20 17:23 34.371366 -119.646937 64 1471ft 143kts
08-Sep-20 17:24 34.385911 -119.602110 67 1491ft 142kts
08-Sep-20 17:25 34.398716 -119.560958 68 2049ft 122kts
08-Sep-20 17:26 34.404652 -119.519844 83 2680ft 128kts
08-Sep-20 17:27 34.403636 -119.476620 92 3302ft 128kts
08-Sep-20 17:28 34.399084 -119.433950 95 3908ft 125kts
08-Sep-20 17:29 34.395007 -119.392894 94 4497ft 120kts
08-Sep-20 17:30 34.390997 -119.351160 95 4748ft 135kts
08-Sep-20 17:31 34.386621 -119.304800 94 4823ft 135kts
08-Sep-20 17:32 34.382547 -119.261433 92 5237ft 127kts
08-Sep-20 17:33 34.378844 -119.216110 93 5250ft 140kts
08-Sep-20 17:34 34.374767 -119.170929 93 5458ft 138kts
08-Sep-20 17:35 34.374255 -119.123871 87 5447ft 141kts
08-Sep-20 17:36 34.372569 -119.076337 91 5443ft 141kts
08-Sep-20 17:37 34.368752 -119.029007 95 5444ft 142kts
08-Sep-20 17:38 34.364131 -118.981522 91 5445ft 141kts
08-Sep-20 17:39 34.360738 -118.933936 92 5442ft 141kts
08-Sep-20 17:40 34.357232 -118.886235 92 5442ft 142kts
08-Sep-20 17:41 34.341364 -118.842324 115 5444ft 145kts
08-Sep-20 17:42 34.323651 -118.798294 111 5445ft 145kts
08-Sep-20 17:43 34.309814 -118.752775 93 5436ft 146kts
08-Sep-20 17:44 34.306465 -118.702770 93 5451ft 151kts
08-Sep-20 17:45 34.301764 -118.652582 98 5450ft 150kts
08-Sep-20 17:46 34.296128 -118.602673 98 5445ft 149kts
08-Sep-20 17:47 34.292618 -118.552504 95 5446ft 149kts
08-Sep-20 17:48 34.289789 -118.502485 94 5447ft 149kts
08-Sep-20 17:49 34.287290 -118.452320 90 5446ft 150kts
08-Sep-20 17:50 34.289498 -118.403721 87 5432ft 143kts
08-Sep-20 17:51 34.287081 -118.356419 106 5443ft 141kts
08-Sep-20 17:52 34.270126 -118.313430 118 5441ft 141kts
08-Sep-20 17:53 34.251190 -118.272502 118 5442ft 142kts
08-Sep-20 17:54 34.231193 -118.231273 122 5447ft 142kts
08-Sep-20 17:55 34.210905 -118.190282 122 5450ft 143kts
08-Sep-20 17:56 34.190658 -118.148687 126 5456ft 144kts
08-Sep-20 17:57 34.165772 -118.110787 130 5457ft 144kts
08-Sep-20 17:58 34.140664 -118.072700 130 5449ft 144kts
08-Sep-20 17:59 34.121601 -118.030060 107 5435ft 147kts
08-Sep-20 18:00 34.114702 -117.981049 99 5435ft 147kts
08-Sep-20 18:01 34.108680 -117.932203 99 5436ft 147kts
08-Sep-20 18:02 34.093239 -117.891283 170 5446ft 141kts
08-Sep-20 18:03 34.054385 -117.880870 167 5430ft 148kts
08-Sep-20 18:04 34.013382 -117.871774 167 5432ft 150kts
08-Sep-20 18:05 33.973175 -117.861224 161 5430ft 150kts
08-Sep-20 18:06 33.933279 -117.846902 160 5435ft 149kts
08-Sep-20 18:08 33.892670 -117.837163 184 5441ft 151kts
08-Sep-20 18:09 33.850711 -117.842356 184 5435ft 152kts
08-Sep-20 18:10 33.808913 -117.850853 188 5434ft 152kts
08-Sep-20 18:11 33.779213 -117.827514 112 5440ft 143kts
08-Sep-20 18:12 33.762432 -117.783816 111 5431ft 144kts
08-Sep-20 18:13 33.745758 -117.740044 112 5437ft 144kts
08-Sep-20 18:14 33.728932 -117.696138 112 5442ft 144kts
08-Sep-20 18:15 33.712338 -117.652262 112 5442ft 144kts
08-Sep-20 18:16 33.694636 -117.608031 112 5440ft 147kts
08-Sep-20 18:17 33.676539 -117.563546 111 5437ft 151kts
08-Sep-20 18:18 33.658090 -117.517752 111 5443ft 153kts
08-Sep-20 18:19 33.638604 -117.471619 119 5447ft 156kts
08-Sep-20 18:20 33.615989 -117.426708 119 5446ft 157kts
08-Sep-20 18:21 33.593064 -117.382179 120 5443ft 158kts
08-Sep-20 18:22 33.570102 -117.336958 119 5446ft 158kts
08-Sep-20 18:23 33.547366 -117.291896 124 5448ft 156kts
08-Sep-20 18:24 33.524232 -117.247768 124 5449ft 156kts
08-Sep-20 18:25 33.501491 -117.204049 128 5449ft 152kts
08-Sep-20 18:25 33.481268 -117.169547 128 5450ft 152kts
08-Sep-20 18:27 33.441659 -117.139528 162 5453ft 146kts
08-Sep-20 18:27 33.410292 -117.123581 157 5451ft 147kts
08-Sep-20 18:28 33.372285 -117.101773 157 5444ft 150kts
08-Sep-20 18:29 33.334934 -117.080011 160 5318ft 153kts
08-Sep-20 18:30 33.295707 -117.059328 158 4942ft 150kts
08-Sep-20 18:31 33.259157 -117.037683 154 4430ft 152kts
08-Sep-20 18:32 33.221513 -117.014810 157 3953ft 151kts
08-Sep-20 18:33 33.183583 -116.992903 157 3453ft 152kts
08-Sep-20 18:34 33.146126 -116.971853 157 2931ft 144kts
08-Sep-20 18:35 33.111272 -116.952307 157 2676ft 130kts
08-Sep-20 18:36 33.078979 -116.934102 157 2679ft 127kts
08-Sep-20 18:37 33.052099 -116.909991 106 2483ft 106kts
08-Sep-20 18:38 33.045865 -116.878280 154 2401ft 102kts
08-Sep-20 18:39 33.036272 -116.895863 277 1779ft 79kts
08-Sep-20 18:40 33.039135 -116.914603 292 1396ft 12kts
08-Sep-20 18:41 33.039423 -116.912569 101 1396ft 18kts
08-Sep-20 18:42 33.040620 -116.911386 187 1396ft 0kts
08-Sep-20 18:43 33.040620 -116.911386 187 1396ft 0kts

Navigation Log

Ident Type
Flight plan parsing failed, navigation log unavailable